Time;durP1;ratioP1;P1;durP2;ratioP2;P2;SDS_P1;SDS_P2;PMS_P1;PMS_P2;Temp;Humidity;BMP_temperature;BMP_pressure;BME280_temperature;BME280_humidity;BME280_pressure;Samples;Min_cycle;Max_cycle;Signal;HPM_P1;HPM_P2
2024/01/13 00:00:03;;;;;;;1.15;0.93;;;6.00;84.20;;;;;;5027312;28;20033;-66
2024/01/13 00:02:29;;;;;;;2.30;1.23;;;6.00;84.20;;;;;;5021852;28;20040;-66
2024/01/13 00:04:55;;;;;;;4.35;1.45;;;6.00;84.20;;;;;;5035369;28;20488;-63
2024/01/13 00:07:20;;;;;;;2.20;1.60;;;6.00;84.20;;;;;;5019249;28;20853;-63
2024/01/13 00:09:46;;;;;;;2.53;1.55;;;6.00;84.20;;;;;;5024072;28;20038;-66
2024/01/13 00:12:12;;;;;;;1.90;1.60;;;6.00;84.20;;;;;;5034714;28;20499;-66
2024/01/13 00:14:38;;;;;;;1.52;1.42;;;6.00;84.30;;;;;;5031750;28;20424;-63
2024/01/13 00:17:03;;;;;;;3.80;2.33;;;6.00;84.30;;;;;;5031532;28;20136;-66
2024/01/13 00:19:29;;;;;;;3.33;1.45;;;6.00;84.40;;;;;;5032425;28;20060;-63
2024/01/13 00:21:55;;;;;;;3.67;1.67;;;6.00;84.40;;;;;;5043477;28;20147;-63
2024/01/13 00:24:21;;;;;;;2.20;1.60;;;5.90;84.40;;;;;;5040809;28;20033;-66
2024/01/13 00:26:46;;;;;;;2.35;1.58;;;5.90;84.40;;;;;;5033019;28;20434;-66
2024/01/13 00:29:12;;;;;;;2.38;1.55;;;5.90;84.40;;;;;;5033686;28;20476;-63
2024/01/13 00:31:38;;;;;;;2.33;1.65;;;5.90;84.40;;;;;;5033158;28;20033;-63
2024/01/13 00:34:04;;;;;;;3.10;1.58;;;5.90;84.40;;;;;;5032586;28;20108;-63
2024/01/13 00:36:29;;;;;;;5.35;1.88;;;5.90;84.40;;;;;;5032178;28;20032;-66
2024/01/13 00:38:55;;;;;;;2.05;1.73;;;5.90;84.50;;;;;;5037863;28;20080;-63
2024/01/13 00:41:21;;;;;;;2.83;1.92;;;5.90;84.40;;;;;;5035291;28;20039;-66
2024/01/13 00:43:47;;;;;;;4.93;2.50;;;5.90;84.40;;;;;;5032129;28;20067;-66
2024/01/13 00:46:13;;;;;;;2.33;1.88;;;5.90;84.40;;;;;;5031624;28;20033;-66
2024/01/13 00:48:39;;;;;;;4.45;2.40;;;5.90;84.30;;;;;;5062094;28;20080;-66
2024/01/13 00:51:07;;;;;;;3.63;2.13;;;5.90;84.30;;;;;;5031507;28;20123;-66
2024/01/13 00:53:33;;;;;;;7.20;3.55;;;5.90;84.60;;;;;;5032002;28;20426;-66
2024/01/13 00:55:59;;;;;;;5.40;3.42;;;5.80;84.80;;;;;;5036216;28;20068;-63
2024/01/13 00:58:25;;;;;;;7.20;2.75;;;5.80;85.00;;;;;;5029449;28;20440;-63
2024/01/13 01:00:51;;;;;;;4.35;3.17;;;5.80;85.00;;;;;;5032646;28;20026;-63
2024/01/13 01:03:16;;;;;;;7.50;2.95;;;5.80;85.10;;;;;;5063103;28;20052;-63
2024/01/13 01:05:42;;;;;;;6.40;4.78;;;5.80;85.10;;;;;;5035333;28;20091;-63
2024/01/13 01:08:08;;;;;;;4.20;3.05;;;5.80;85.30;;;;;;5039225;28;20044;-63
2024/01/13 01:10:33;;;;;;;7.45;4.15;;;5.70;85.30;;;;;;5034951;28;20392;-63
2024/01/13 01:13:00;;;;;;;7.65;4.05;;;5.70;85.60;;;;;;5036838;28;20063;-63
2024/01/13 01:15:26;;;;;;;4.93;3.50;;;5.70;85.70;;;;;;5029974;28;20018;-63
2024/01/13 01:17:52;;;;;;;8.40;3.88;;;5.70;85.80;;;;;;5034713;28;20388;-66
2024/01/13 01:20:19;;;;;;;6.18;4.03;;;5.70;85.80;;;;;;5038150;28;20025;-65
2024/01/13 01:22:46;;;;;;;6.45;3.75;;;5.70;85.80;;;;;;5038064;28;20120;-63
2024/01/13 01:25:12;;;;;;;5.30;3.17;;;5.70;85.70;;;;;;5032166;28;20021;-66
2024/01/13 01:27:37;;;;;;;6.55;3.60;;;5.80;85.70;;;;;;5038886;28;20029;-66
2024/01/13 01:30:04;;;;;;;8.25;4.20;;;5.80;85.60;;;;;;5035425;28;20388;-63
2024/01/13 01:32:29;;;;;;;7.68;3.90;;;5.80;85.50;;;;;;5041371;28;20029;-63
2024/01/13 01:34:55;;;;;;;7.45;4.22;;;5.80;85.50;;;;;;5038497;28;20036;-63
2024/01/13 01:37:21;;;;;;;6.57;3.63;;;5.80;85.30;;;;;;5020360;28;20104;-66
2024/01/13 01:39:47;;;;;;;4.03;3.13;;;5.90;85.40;;;;;;5036673;28;20028;-63
2024/01/13 01:42:12;;;;;;;10.43;4.50;;;5.80;85.40;;;;;;5035166;28;20029;-66
2024/01/13 01:44:38;;;;;;;11.23;4.60;;;5.80;85.50;;;;;;5033149;28;20056;-66
2024/01/13 01:47:06;;;;;;;6.70;4.75;;;5.90;85.50;;;;;;5034778;28;20419;-66
2024/01/13 01:49:32;;;;;;;7.53;3.53;;;5.90;85.50;;;;;;5030568;28;20045;-63
2024/01/13 01:51:57;;;;;;;6.57;3.92;;;5.80;85.50;;;;;;5031370;28;20033;-63
2024/01/13 01:54:23;;;;;;;5.45;3.55;;;5.80;85.50;;;;;;5031798;28;20022;-63
2024/01/13 01:56:49;;;;;;;5.68;3.40;;;5.80;85.70;;;;;;5029530;28;20376;-63
2024/01/13 01:59:15;;;;;;;5.95;4.20;;;5.80;85.70;;;;;;5033502;28;20036;-63
2024/01/13 02:01:41;;;;;;;8.27;5.25;;;5.70;85.80;;;;;;5031657;28;20034;-66
2024/01/13 02:04:07;;;;;;;7.72;4.15;;;5.70;86.10;;;;;;5036417;28;20036;-66
2024/01/13 02:06:33;;;;;;;8.85;4.65;;;5.60;86.30;;;;;;5068081;28;20033;-66
2024/01/13 02:09:00;;;;;;;7.25;3.55;;;5.60;86.50;;;;;;5030787;28;20037;-66
2024/01/13 02:11:25;;;;;;;10.13;5.40;;;5.50;86.70;;;;;;5029739;28;20033;-66
2024/01/13 02:13:51;;;;;;;6.10;3.85;;;5.50;86.80;;;;;;5032470;28;20540;-66
2024/01/13 02:16:17;;;;;;;5.30;3.78;;;5.60;87.30;;;;;;5034905;28;20024;-63
2024/01/13 02:18:43;;;;;;;7.40;4.63;;;5.50;86.80;;;;;;5033985;28;20037;-63
2024/01/13 02:21:10;;;;;;;9.95;5.03;;;5.50;87.00;;;;;;5037257;28;20021;-63
2024/01/13 02:23:36;;;;;;;8.20;5.13;;;5.50;87.20;;;;;;5030807;28;20505;-63
2024/01/13 02:26:02;;;;;;;5.38;4.05;;;5.50;87.40;;;;;;5031936;28;20037;-66
2024/01/13 02:28:27;;;;;;;7.20;4.70;;;5.50;87.50;;;;;;5038601;28;20061;-66
2024/01/13 02:30:53;;;;;;;4.88;3.08;;;5.50;87.40;;;;;;5033274;28;20103;-66
2024/01/13 02:33:19;;;;;;;7.25;3.88;;;5.50;87.30;;;;;;5035410;28;20227;-63
2024/01/13 02:35:44;;;;;;;4.43;3.22;;;5.50;87.20;;;;;;5038596;28;20357;-63
2024/01/13 02:38:10;;;;;;;6.78;3.47;;;5.50;87.20;;;;;;5034268;28;20029;-63
2024/01/13 02:40:36;;;;;;;5.68;3.67;;;5.60;87.30;;;;;;5063521;28;20065;-63
2024/01/13 02:43:02;;;;;;;8.57;3.72;;;5.60;87.20;;;;;;5032008;28;20029;-63
2024/01/13 02:45:27;;;;;;;5.28;3.83;;;5.60;87.10;;;;;;5057202;28;20034;-66
2024/01/13 02:48:04;;;;;;;5.28;3.40;;;5.60;87.10;;;;;;5029496;28;20029;-63
2024/01/13 02:50:30;;;;;;;6.03;2.97;;;5.60;87.20;;;;;;5037146;28;20025;-63
2024/01/13 02:52:56;;;;;;;6.82;3.22;;;5.50;87.40;;;;;;5033928;28;20048;-63
2024/01/13 02:55:21;;;;;;;6.18;3.75;;;5.50;87.50;;;;;;5033202;28;20550;-63
2024/01/13 02:57:47;;;;;;;7.22;3.17;;;5.50;87.60;;;;;;5036628;28;20376;-63
2024/01/13 03:00:13;;;;;;;7.28;4.57;;;5.50;87.60;;;;;;5042944;28;20067;-63
2024/01/13 03:02:40;;;;;;;7.18;3.40;;;5.50;87.80;;;;;;5041169;28;20046;-63
2024/01/13 03:05:11;;;;;;;7.63;3.28;;;5.50;87.90;;;;;;5035815;28;20140;-63
2024/01/13 03:07:37;;;;;;;7.80;3.43;;;5.40;88.00;;;;;;5031684;28;20124;-63
2024/01/13 03:10:03;;;;;;;4.45;2.83;;;5.40;88.00;;;;;;5044851;28;20112;-63
2024/01/13 03:12:29;;;;;;;5.70;3.20;;;5.50;88.10;;;;;;5036510;28;20029;-63
2024/01/13 03:14:56;;;;;;;5.20;2.58;;;5.40;88.10;;;;;;5042318;28;20036;-66
2024/01/13 03:17:22;;;;;;;5.15;3.63;;;5.40;88.10;;;;;;5037215;28;20428;-63
2024/01/13 03:19:47;;;;;;;4.75;2.90;;;5.40;88.10;;;;;;5036205;28;20033;-63
2024/01/13 03:22:13;;;;;;;4.03;2.65;;;5.40;88.10;;;;;;5037186;28;20056;-63
2024/01/13 03:24:39;;;;;;;6.07;3.42;;;5.40;88.70;;;;;;5038907;28;20174;-66
2024/01/13 03:27:05;;;;;;;5.35;2.63;;;5.40;88.10;;;;;;5037461;28;20037;-66
2024/01/13 03:29:30;;;;;;;8.20;3.45;;;5.40;88.10;;;;;;5039704;28;20561;-66
2024/01/13 03:31:56;;;;;;;6.55;3.38;;;5.40;88.00;;;;;;5045312;28;20026;-66
2024/01/13 03:34:22;;;;;;;6.85;3.38;;;5.40;88.10;;;;;;5041763;28;20032;-66
2024/01/13 03:36:47;;;;;;;8.52;4.03;;;5.40;88.10;;;;;;5040469;28;20025;-66
2024/01/13 03:39:13;;;;;;;7.07;3.83;;;5.40;88.20;;;;;;5043121;28;20085;-66
2024/01/13 03:41:39;;;;;;;3.83;2.85;;;5.40;88.40;;;;;;5035402;28;20033;-66
2024/01/13 03:44:04;;;;;;;5.22;2.72;;;5.40;88.40;;;;;;5043248;28;20029;-63
2024/01/13 03:46:30;;;;;;;3.70;2.67;;;5.40;88.30;;;;;;5036810;28;20026;-62
2024/01/13 03:48:56;;;;;;;5.90;3.13;;;5.40;88.30;;;;;;5039032;28;20037;-63
2024/01/13 03:51:22;;;;;;;6.40;3.47;;;5.40;88.30;;;;;;5039158;28;20087;-62
2024/01/13 03:53:47;;;;;;;7.70;2.95;;;5.50;88.20;;;;;;5039863;28;20068;-63
2024/01/13 03:56:13;;;;;;;7.43;2.95;;;5.50;88.10;;;;;;5037697;28;20033;-66
2024/01/13 03:58:39;;;;;;;6.53;3.22;;;5.50;88.00;;;;;;5040940;28;20025;-66
2024/01/13 04:01:05;;;;;;;5.68;3.00;;;5.50;88.00;;;;;;5041679;28;20518;-63
2024/01/13 04:03:31;;;;;;;6.90;3.85;;;5.50;88.10;;;;;;5038781;28;20025;-66
2024/01/13 04:05:58;;;;;;;8.13;4.40;;;5.50;88.00;;;;;;5041605;28;20029;-63
2024/01/13 04:08:24;;;;;;;7.82;4.68;;;5.60;88.10;;;;;;5036178;28;20303;-66
2024/01/13 04:10:50;;;;;;;12.52;4.53;;;5.60;88.10;;;;;;5041783;28;20083;-63
2024/01/13 04:13:17;;;;;;;8.48;4.72;;;5.50;88.10;;;;;;5041430;28;20045;-66
2024/01/13 04:15:42;;;;;;;9.13;5.25;;;5.50;88.30;;;;;;5044323;28;20017;-63
2024/01/13 04:18:09;;;;;;;23.05;6.05;;;5.50;88.40;;;;;;5038930;28;20025;-63
2024/01/13 04:20:34;;;;;;;13.40;5.75;;;5.50;88.60;;;;;;5036579;28;20037;-66
2024/01/13 04:23:00;;;;;;;13.43;6.10;;;5.40;88.90;;;;;;5039726;28;20453;-63
2024/01/13 04:25:26;;;;;;;9.40;5.32;;;5.40;89.10;;;;;;5039613;28;20109;-63
2024/01/13 04:27:54;;;;;;;18.13;5.43;;;5.40;89.20;;;;;;5041248;28;20037;-66
2024/01/13 04:30:20;;;;;;;10.23;5.20;;;5.40;89.30;;;;;;5033753;28;20079;-63
2024/01/13 04:32:46;;;;;;;8.35;5.65;;;5.40;89.40;;;;;;5033843;28;20029;-63
2024/01/13 04:35:12;;;;;;;9.57;5.68;;;5.40;89.40;;;;;;5037411;28;20389;-66
2024/01/13 04:37:38;;;;;;;10.93;5.80;;;5.40;89.30;;;;;;5036323;28;20492;-66
2024/01/13 04:40:05;;;;;;;9.55;5.55;;;5.40;89.30;;;;;;5030038;28;20025;-63
2024/01/13 04:42:33;;;;;;;10.20;5.45;;;5.40;89.20;;;;;;5033827;28;20037;-66
2024/01/13 04:44:59;;;;;;;9.85;5.22;;;5.50;89.20;;;;;;5037684;28;20027;-63
2024/01/13 04:47:26;;;;;;;9.18;5.22;;;5.50;89.20;;;;;;5037129;28;20469;-63
2024/01/13 04:49:52;;;;;;;9.25;4.85;;;5.50;89.10;;;;;;5031409;28;20053;-63
2024/01/13 04:52:18;;;;;;;8.63;5.25;;;5.50;89.10;;;;;;5035156;28;20072;-66
2024/01/13 04:54:43;;;;;;;7.97;4.90;;;5.50;89.10;;;;;;5034998;28;20391;-66
2024/01/13 04:57:09;;;;;;;8.13;3.92;;;5.60;89.00;;;;;;5035186;28;20496;-66
2024/01/13 04:59:35;;;;;;;8.77;5.18;;;5.60;88.90;;;;;;5034659;28;20040;-66
2024/01/13 05:02:01;;;;;;;9.45;4.30;;;5.60;88.80;;;;;;5035032;28;20041;-66
2024/01/13 05:04:26;;;;;;;6.90;4.07;;;5.70;88.80;;;;;;5034705;28;20037;-63
2024/01/13 05:06:52;;;;;;;8.93;5.20;;;5.70;88.60;;;;;;5035545;28;20038;-66
2024/01/13 05:09:18;;;;;;;6.60;4.20;;;5.70;88.60;;;;;;5035867;28;20038;-66
2024/01/13 05:11:44;;;;;;;7.15;3.53;;;5.70;88.60;;;;;;5068134;28;20087;-63
2024/01/13 05:14:10;;;;;;;10.10;4.40;;;5.70;88.50;;;;;;5032415;28;20110;-66
2024/01/13 05:16:35;;;;;;;6.93;3.72;;;5.70;88.60;;;;;;5030872;28;20033;-66
2024/01/13 05:19:02;;;;;;;5.57;2.72;;;5.70;88.60;;;;;;5033964;28;20026;-66
2024/01/13 05:21:28;;;;;;;4.50;3.22;;;5.70;88.50;;;;;;5038425;28;20040;-66
2024/01/13 05:23:54;;;;;;;7.45;3.58;;;5.80;88.30;;;;;;5029052;28;20037;-66
2024/01/13 05:26:20;;;;;;;6.82;2.85;;;5.70;88.20;;;;;;5032021;28;20047;-66
2024/01/13 05:28:45;;;;;;;4.32;2.55;;;5.70;88.30;;;;;;5035306;28;20029;-66
2024/01/13 05:31:11;;;;;;;5.68;3.22;;;5.70;88.30;;;;;;5042264;28;20033;-66
2024/01/13 05:33:37;;;;;;;4.00;3.03;;;5.70;88.30;;;;;;5031718;28;20631;-66
2024/01/13 05:36:03;;;;;;;5.97;3.33;;;5.70;88.20;;;;;;5038284;28;20388;-66
2024/01/13 05:38:28;;;;;;;7.68;3.50;;;5.70;88.20;;;;;;5037035;28;20037;-63
2024/01/13 05:40:54;;;;;;;5.00;2.83;;;5.70;88.20;;;;;;5044393;28;20392;-63
2024/01/13 05:43:20;;;;;;;4.13;3.33;;;5.70;88.20;;;;;;5039072;28;20034;-63
2024/01/13 05:45:46;;;;;;;7.90;3.85;;;5.70;88.10;;;;;;5043819;28;20037;-66
2024/01/13 05:48:12;;;;;;;7.80;3.55;;;5.80;88.10;;;;;;5026782;28;20052;-62
2024/01/13 05:50:38;;;;;;;5.95;3.65;;;5.70;88.00;;;;;;5037413;28;20032;-63
2024/01/13 05:53:03;;;;;;;11.15;5.65;;;5.70;88.00;;;;;;5029740;28;21192;-66
2024/01/13 05:55:29;;;;;;;8.25;4.38;;;5.70;88.10;;;;;;5032606;28;20037;-66
2024/01/13 05:57:55;;;;;;;6.07;4.03;;;5.70;88.20;;;;;;5030395;28;20280;-66
2024/01/13 06:00:21;;;;;;;5.07;3.60;;;5.70;88.20;;;;;;5034620;28;20509;-66
2024/01/13 06:02:46;;;;;;;8.48;4.55;;;5.70;88.20;;;;;;5036549;28;20395;-66
2024/01/13 06:05:12;;;;;;;8.27;4.60;;;5.70;88.20;;;;;;5041339;28;20480;-66
2024/01/13 06:07:38;;;;;;;10.05;4.82;;;5.70;88.20;;;;;;5034447;28;20536;-62
2024/01/13 06:10:04;;;;;;;11.13;4.93;;;5.70;88.20;;;;;;5039622;28;20033;-63
2024/01/13 06:12:30;;;;;;;7.78;5.00;;;5.60;88.20;;;;;;5036561;28;20046;-62
2024/01/13 06:14:56;;;;;;;8.65;4.75;;;5.70;88.30;;;;;;5038343;28;20037;-62
2024/01/13 06:17:22;;;;;;;8.30;4.55;;;5.70;88.30;;;;;;5034543;28;20079;-62
2024/01/13 06:19:48;;;;;;;11.85;5.85;;;5.60;88.40;;;;;;5070519;28;20029;-62
2024/01/13 06:22:13;;;;;;;8.25;4.60;;;5.60;88.50;;;;;;5035973;28;20030;-62
2024/01/13 06:24:39;;;;;;;8.38;5.25;;;5.60;88.50;;;;;;5035536;28;20527;-66
2024/01/13 06:27:05;;;;;;;8.32;5.20;;;5.70;88.40;;;;;;5031064;28;20060;-64
2024/01/13 06:29:31;;;;;;;6.20;3.70;;;5.70;88.40;;;;;;5027919;28;20033;-63
2024/01/13 06:31:56;;;;;;;7.57;5.13;;;5.60;88.30;;;;;;5035860;28;20392;-62
2024/01/13 06:34:22;;;;;;;7.40;4.90;;;5.70;88.40;;;;;;5033200;28;20035;-63
2024/01/13 06:36:48;;;;;;;15.07;6.65;;;5.70;88.40;;;;;;5037554;28;20032;-63
2024/01/13 06:39:13;;;;;;;8.82;5.28;;;5.70;88.50;;;;;;5038862;28;20087;-66
2024/01/13 06:41:39;;;;;;;9.43;4.88;;;5.60;88.50;;;;;;5037270;28;20435;-66
2024/01/13 06:44:05;;;;;;;8.18;4.78;;;5.60;88.60;;;;;;5034977;28;20451;-66
2024/01/13 06:46:30;;;;;;;9.93;6.03;;;5.60;88.70;;;;;;5036351;28;20472;-62
2024/01/13 06:48:56;;;;;;;7.85;5.10;;;5.60;88.80;;;;;;5040934;28;20033;-66
2024/01/13 06:51:22;;;;;;;7.70;4.72;;;5.60;88.80;;;;;;5033977;28;20026;-66
2024/01/13 06:53:48;;;;;;;7.25;4.32;;;5.60;88.90;;;;;;5036937;28;20127;-66
2024/01/13 06:56:13;;;;;;;6.63;4.28;;;5.50;88.90;;;;;;5043495;28;20025;-66
2024/01/13 06:58:39;;;;;;;6.88;4.25;;;5.50;89.00;;;;;;5068724;28;20426;-66
2024/01/13 07:01:05;;;;;;;6.60;4.30;;;5.60;89.00;;;;;;5035249;28;20064;-65
2024/01/13 07:03:31;;;;;;;7.68;5.05;;;5.60;89.00;;;;;;5034885;28;20045;-65
2024/01/13 07:05:57;;;;;;;7.30;4.93;;;5.60;89.10;;;;;;5039495;28;20022;-65
2024/01/13 07:08:22;;;;;;;8.57;4.25;;;5.60;89.10;;;;;;5035767;28;20401;-65
2024/01/13 07:10:50;;;;;;;5.57;3.92;;;5.60;89.20;;;;;;5037631;28;20488;-65
2024/01/13 07:13:17;;;;;;;9.23;4.63;;;5.60;89.20;;;;;;5042151;28;20060;-65
2024/01/13 07:15:43;;;;;;;7.88;4.70;;;5.50;89.30;;;;;;5035344;28;20033;-65
2024/01/13 07:18:08;;;;;;;8.73;5.00;;;5.60;89.30;;;;;;5042409;28;20492;-65
2024/01/13 07:20:34;;;;;;;6.70;4.95;;;5.60;89.20;;;;;;5035635;28;20033;-65
2024/01/13 07:23:00;;;;;;;6.60;3.95;;;5.60;89.20;;;;;;5038320;28;20029;-65
2024/01/13 07:25:30;;;;;;;6.25;3.72;;;5.60;89.30;;;;;;5036384;28;20057;-65
2024/01/13 07:27:56;;;;;;;8.57;4.03;;;5.60;89.30;;;;;;5039226;28;20056;-65
2024/01/13 07:30:22;;;;;;;8.75;4.90;;;5.60;89.30;;;;;;5040787;28;20031;-60
2024/01/13 07:32:47;;;;;;;6.43;4.75;;;5.60;89.30;;;;;;5038448;28;20169;-61
2024/01/13 07:35:13;;;;;;;6.43;3.75;;;5.60;89.30;;;;;;5034015;28;20429;-62
2024/01/13 07:37:39;;;;;;;8.93;4.57;;;5.70;89.30;;;;;;5036965;28;20032;-61
2024/01/13 07:40:06;;;;;;;10.65;5.50;;;5.70;89.20;;;;;;5039895;28;20098;-62
2024/01/13 07:42:32;;;;;;;9.45;5.32;;;5.70;89.20;;;;;;5034710;28;20365;-62
2024/01/13 07:44:58;;;;;;;10.70;5.20;;;5.60;89.20;;;;;;5040893;28;20030;-61
2024/01/13 07:47:24;;;;;;;10.18;4.95;;;5.60;89.40;;;;;;5040497;28;20040;-67
2024/01/13 07:49:49;;;;;;;10.63;5.70;;;5.60;89.60;;;;;;5037183;28;20041;-66
2024/01/13 07:52:15;;;;;;;10.00;5.40;;;5.60;89.50;;;;;;5034166;28;20369;-66
2024/01/13 07:54:41;;;;;;;7.88;4.88;;;5.60;89.50;;;;;;5040161;28;20025;-66
2024/01/13 07:57:07;;;;;;;6.07;3.50;;;5.60;89.60;;;;;;5046372;28;20079;-66
2024/01/13 07:59:32;;;;;;;9.23;5.20;;;5.60;90.00;;;;;;5040578;28;20022;-66
2024/01/13 08:01:58;;;;;;;10.20;5.20;;;5.60;89.40;;;;;;5036657;28;20064;-65
2024/01/13 08:04:24;;;;;;;9.25;5.57;;;5.60;90.00;;;;;;5038763;28;20045;-67
2024/01/13 08:06:49;;;;;;;9.63;4.70;;;5.60;89.50;;;;;;5041183;28;20031;-67
2024/01/13 08:09:17;;;;;;;8.68;4.63;;;5.70;89.50;;;;;;5033049;28;20036;-67
2024/01/13 08:11:43;;;;;;;10.23;5.13;;;5.70;89.50;;;;;;5038334;28;20056;-67
2024/01/13 08:14:09;;;;;;;11.70;4.93;;;5.70;89.40;;;;;;5027010;28;20107;-67
2024/01/13 08:16:34;;;;;;;9.55;5.20;;;5.70;89.30;;;;;;5030926;28;20087;-67
2024/01/13 08:19:01;;;;;;;7.50;4.90;;;5.80;89.40;;;;;;5035072;28;20034;-67
2024/01/13 08:21:27;;;;;;;8.27;4.80;;;5.80;89.20;;;;;;5037095;28;20090;-65
2024/01/13 08:23:55;;;;;;;10.05;5.38;;;5.80;89.20;;;;;;5031617;28;20025;-65
2024/01/13 08:26:21;;;;;;;9.98;5.82;;;5.80;89.20;;;;;;5032784;28;20056;-61
2024/01/13 08:28:46;;;;;;;13.50;6.32;;;5.80;89.10;;;;;;5035193;28;20037;-66
2024/01/13 08:31:12;;;;;;;12.10;6.68;;;5.90;89.20;;;;;;5032579;28;20040;-60
2024/01/13 08:33:38;;;;;;;13.50;6.47;;;5.80;89.20;;;;;;5032708;28;20083;-60
2024/01/13 08:36:04;;;;;;;10.20;5.90;;;5.80;89.30;;;;;;5030194;28;20018;-62
2024/01/13 08:38:30;;;;;;;10.98;5.85;;;5.80;89.40;;;;;;5034667;28;20033;-62
2024/01/13 08:40:55;;;;;;;9.32;5.60;;;5.80;89.50;;;;;;5038704;28;20034;-62
2024/01/13 08:43:21;;;;;;;8.80;4.65;;;5.80;89.50;;;;;;5036862;28;20029;-62
2024/01/13 08:45:47;;;;;;;5.43;3.40;;;5.80;89.50;;;;;;5030871;28;20033;-62
2024/01/13 08:48:12;;;;;;;5.80;4.57;;;5.80;89.40;;;;;;5036023;28;20396;-59
2024/01/13 08:50:39;;;;;;;10.60;4.82;;;5.80;89.30;;;;;;5030841;28;20072;-61
2024/01/13 08:53:05;;;;;;;9.15;3.90;;;5.80;89.30;;;;;;5033973;28;20029;-66
2024/01/13 08:55:31;;;;;;;7.63;3.28;;;5.80;89.30;;;;;;5033265;28;20029;-67
2024/01/13 08:57:57;;;;;;;7.43;3.47;;;5.80;89.40;;;;;;5030478;28;20392;-68
2024/01/13 09:00:23;;;;;;;13.88;5.35;;;5.80;89.40;;;;;;5024683;28;20022;-67
2024/01/13 09:02:48;;;;;;;7.05;4.20;;;5.90;89.30;;;;;;5032315;28;20041;-67
2024/01/13 09:05:14;;;;;;;6.00;3.05;;;5.90;89.20;;;;;;5028311;28;20034;-65
2024/01/13 09:07:40;;;;;;;4.97;3.22;;;5.90;89.20;;;;;;5032429;28;20501;-66
2024/01/13 09:10:06;;;;;;;8.20;3.58;;;5.90;89.10;;;;;;5034062;28;20040;-66
2024/01/13 09:12:32;;;;;;;5.25;3.33;;;5.90;89.10;;;;;;5040016;28;20022;-65
2024/01/13 09:14:58;;;;;;;7.38;3.83;;;5.90;89.00;;;;;;5033828;28;20103;-65
2024/01/13 09:17:23;;;;;;;6.38;3.17;;;5.90;89.10;;;;;;5032383;28;20033;-65
2024/01/13 09:19:49;;;;;;;6.47;4.05;;;5.90;88.90;;;;;;5037618;28;20087;-66
2024/01/13 09:22:15;;;;;;;7.47;3.70;;;5.90;89.00;;;;;;5038012;28;20120;-66
2024/01/13 09:24:44;;;;;;;6.93;3.72;;;5.90;89.00;;;;;;5041589;28;20040;-66
2024/01/13 09:27:09;;;;;;;5.78;3.92;;;5.90;89.00;;;;;;5031246;28;20456;-66
2024/01/13 09:29:35;;;;;;;8.45;3.63;;;5.90;89.00;;;;;;5033854;28;20366;-65
2024/01/13 09:32:04;;;;;;;7.13;3.63;;;5.90;88.80;;;;;;5034140;28;20048;-66
2024/01/13 09:34:30;;;;;;;6.43;3.58;;;5.90;89.00;;;;;;5033280;28;20025;-65
2024/01/13 09:36:55;;;;;;;5.03;2.88;;;5.90;89.00;;;;;;5031516;28;20036;-66
2024/01/13 09:39:21;;;;;;;7.60;3.78;;;6.00;88.90;;;;;;5029234;28;20029;-65
2024/01/13 09:41:48;;;;;;;9.52;3.88;;;5.90;88.70;;;;;;5035273;28;20085;-66
2024/01/13 09:44:24;;;;;;;6.00;3.25;;;5.90;88.60;;;;;;5035543;28;20052;-66
2024/01/13 09:46:51;;;;;;;5.63;3.38;;;5.90;88.50;;;;;;5033575;28;20035;-66
2024/01/13 09:49:19;;;;;;;5.28;3.67;;;5.90;88.70;;;;;;5029713;28;20052;-61
2024/01/13 09:51:45;;;;;;;7.85;3.72;;;5.90;88.70;;;;;;5030218;28;20495;-66
2024/01/13 09:54:30;;;;;;;4.97;2.90;;;5.90;88.80;;;;;;5030289;28;20044;-66
2024/01/13 09:56:57;;;;;;;5.68;2.78;;;5.90;88.80;;;;;;5026361;28;20863;-66
2024/01/13 09:59:25;;;;;;;17.92;3.47;;;5.90;88.80;;;;;;5025857;28;20100;-66
2024/01/13 10:01:55;;;;;;;5.68;3.28;;;5.90;88.70;;;;;;5030373;28;20082;-66
2024/01/13 10:04:21;;;;;;;5.75;2.92;;;5.90;88.60;;;;;;5023700;28;20053;-66
2024/01/13 10:06:47;;;;;;;5.72;3.58;;;5.90;88.60;;;;;;5018092;28;20061;-66
2024/01/13 10:09:14;;;;;;;5.13;2.42;;;5.90;88.60;;;;;;5029283;28;20730;-66
2024/01/13 10:11:40;;;;;;;6.72;3.38;;;5.90;88.60;;;;;;5037156;28;20029;-66
2024/01/13 10:14:08;;;;;;;9.45;2.72;;;5.90;88.50;;;;;;5038264;28;20049;-66
2024/01/13 10:16:35;;;;;;;5.13;2.83;;;5.90;88.60;;;;;;5034295;28;20030;-62
2024/01/13 10:19:05;;;;;;;4.10;1.85;;;5.90;88.60;;;;;;5033473;28;20140;-62
2024/01/13 10:21:32;;;;;;;6.95;2.10;;;6.00;88.50;;;;;;5029067;28;20033;-63
2024/01/13 10:24:00;;;;;;;3.75;1.85;;;6.00;88.40;;;;;;5033718;28;20044;-62
2024/01/13 10:26:28;;;;;;;8.73;2.08;;;6.00;88.30;;;;;;5034956;28;20029;-64
2024/01/13 10:28:57;;;;;;;2.83;2.35;;;6.10;88.20;;;;;;5028247;28;20389;-63
2024/01/13 10:31:23;;;;;;;3.78;2.35;;;6.10;88.00;;;;;;5042510;28;20351;-62
2024/01/13 10:33:50;;;;;;;5.78;2.47;;;6.10;88.00;;;;;;5025957;28;20041;-62
2024/01/13 10:36:19;;;;;;;3.20;1.58;;;6.10;87.90;;;;;;5028676;28;20108;-62
2024/01/13 10:38:44;;;;;;;4.03;2.20;;;6.10;87.90;;;;;;5033091;28;20052;-62
2024/01/13 10:41:10;;;;;;;10.95;2.75;;;6.10;87.70;;;;;;5034307;28;20030;-62
2024/01/13 10:43:41;;;;;;;4.95;2.30;;;6.10;87.70;;;;;;5026418;28;20037;-61
2024/01/13 10:46:11;;;;;;;4.50;2.72;;;6.10;87.80;;;;;;5030458;28;20030;-62
2024/01/13 10:48:41;;;;;;;4.28;2.33;;;6.10;87.80;;;;;;5029277;28;20043;-61
2024/01/13 10:51:13;;;;;;;3.95;2.58;;;6.00;87.80;;;;;;5025423;28;20496;-61
2024/01/13 10:53:42;;;;;;;5.82;2.22;;;6.10;87.80;;;;;;5030903;28;20413;-62
2024/01/13 10:56:08;;;;;;;3.63;2.05;;;6.10;87.70;;;;;;5028392;28;20401;-65
2024/01/13 10:58:35;;;;;;;3.47;2.53;;;6.10;87.70;;;;;;5032358;28;20390;-65
2024/01/13 11:01:01;;;;;;;4.07;2.08;;;6.00;87.60;;;;;;5031261;28;20033;-66
2024/01/13 11:03:28;;;;;;;4.85;2.40;;;6.00;87.70;;;;;;5028063;28;20047;-65
2024/01/13 11:05:54;;;;;;;5.50;2.83;;;6.00;87.60;;;;;;5030171;28;20667;-66
2024/01/13 11:08:20;;;;;;;7.30;3.25;;;6.00;87.60;;;;;;5029067;28;20108;-66
2024/01/13 11:10:50;;;;;;;7.75;3.72;;;5.90;87.60;;;;;;5028489;28;20037;-66
2024/01/13 11:13:23;;;;;;;5.72;3.28;;;5.90;87.70;;;;;;5026499;28;20033;-66
2024/01/13 11:16:04;;;;;;;4.25;2.60;;;5.90;87.80;;;;;;5033718;28;20030;-66
2024/01/13 11:18:36;;;;;;;6.50;3.28;;;5.90;87.80;;;;;;5023435;28;20131;-65
2024/01/13 11:21:07;;;;;;;5.90;4.10;;;5.90;87.60;;;;;;5034869;28;20436;-62
2024/01/13 11:23:40;;;;;;;7.22;4.15;;;5.90;87.60;;;;;;5028782;28;20049;-62
2024/01/13 11:26:07;;;;;;;7.55;4.20;;;5.90;87.50;;;;;;5033661;28;20358;-66
2024/01/13 11:29:02;;;;;;;6.32;3.97;;;5.90;87.40;;;;;;5026070;28;20468;-66
2024/01/13 11:31:41;;;;;;;8.80;4.25;;;5.90;87.00;;;;;;5032836;28;20455;-66
2024/01/13 11:34:11;;;;;;;6.25;4.25;;;5.90;87.00;;;;;;5030248;28;20485;-62
2024/01/13 11:36:44;;;;;;;10.55;4.85;;;5.80;87.10;;;;;;5033055;28;20090;-62
2024/01/13 11:39:10;;;;;;;10.25;4.88;;;5.80;87.00;;;;;;5033007;28;20033;-65
2024/01/13 11:41:37;;;;;;;10.45;5.70;;;5.80;86.90;;;;;;5039400;28;20056;-66
2024/01/13 11:44:02;;;;;;;8.40;4.47;;;5.80;87.00;;;;;;5032195;28;20029;-66
2024/01/13 11:46:28;;;;;;;10.57;5.45;;;5.90;86.90;;;;;;5038862;28;20437;-66
2024/01/13 11:49:02;;;;;;;16.80;5.18;;;5.90;86.80;;;;;;5029046;28;20400;-66
2024/01/13 11:51:57;;;;;;;9.45;5.00;;;5.90;86.90;;;;;;5032710;28;20021;-66
2024/01/13 11:54:24;;;;;;;12.45;6.05;;;5.90;86.80;;;;;;5034951;28;20448;-66
2024/01/13 11:56:50;;;;;;;9.32;5.35;;;5.90;86.80;;;;;;5033565;28;20366;-66
2024/01/13 11:59:17;;;;;;;8.57;4.68;;;5.90;86.70;;;;;;5033500;28;20042;-66
2024/01/13 12:01:44;;;;;;;10.43;5.45;;;5.90;86.90;;;;;;5035966;28;20034;-66
2024/01/13 12:04:10;;;;;;;8.38;5.05;;;5.90;86.70;;;;;;5030792;28;20496;-66
2024/01/13 12:06:36;;;;;;;10.95;5.07;;;5.90;86.60;;;;;;5031730;28;20042;-65
2024/01/13 12:09:02;;;;;;;11.13;5.68;;;6.00;86.60;;;;;;5035825;28;20360;-66
2024/01/13 12:11:28;;;;;;;10.90;6.65;;;6.00;86.30;;;;;;5033105;28;20095;-66
2024/01/13 12:13:54;;;;;;;11.55;6.25;;;6.00;86.30;;;;;;5028918;28;20057;-62
2024/01/13 12:16:20;;;;;;;10.63;6.43;;;6.00;86.40;;;;;;5031151;28;20378;-63
2024/01/13 12:18:46;;;;;;;12.30;6.05;;;6.10;86.20;;;;;;5031593;28;20041;-66
2024/01/13 12:21:14;;;;;;;13.35;7.07;;;6.10;86.10;;;;;;5038064;28;20025;-66
2024/01/13 12:23:41;;;;;;;12.02;7.32;;;6.10;86.20;;;;;;5024902;28;20133;-66
2024/01/13 12:26:07;;;;;;;9.68;5.70;;;6.10;85.70;;;;;;5030514;28;20431;-66
2024/01/13 12:28:33;;;;;;;14.80;6.85;;;6.10;85.80;;;;;;5022078;28;20034;-65
2024/01/13 12:31:03;;;;;;;9.20;5.82;;;6.10;85.70;;;;;;5019301;28;20037;-62
2024/01/13 12:33:29;;;;;;;16.30;7.28;;;6.20;85.70;;;;;;5032747;28;20021;-62
2024/01/13 12:35:59;;;;;;;17.35;6.57;;;6.20;85.60;;;;;;5030376;28;20033;-62
2024/01/13 12:38:29;;;;;;;18.75;8.40;;;6.10;85.50;;;;;;5026615;28;20048;-62
2024/01/13 12:40:57;;;;;;;13.27;7.13;;;6.20;85.50;;;;;;5031869;28;20057;-66
2024/01/13 12:43:24;;;;;;;17.08;7.55;;;6.20;85.40;;;;;;5030461;28;20410;-62
2024/01/13 12:45:50;;;;;;;14.25;7.25;;;6.20;85.20;;;;;;5023523;28;20048;-62
2024/01/13 12:48:16;;;;;;;12.90;7.28;;;6.20;85.20;;;;;;5035341;28;20048;-62
2024/01/13 12:50:43;;;;;;;12.77;7.50;;;6.10;85.00;;;;;;5009918;28;20121;-62